Flight Track Log - Related Links

Times and Time Zones

All times are in EDT time to prevent confusion due to time zone crossing. See the SWA2051 flight status page for this flight to view local times or setup timezone preferences in your user account.

Time Position Orientation Groundspeed Altitude Reporting Facility
EDT Latitude Longitude Course Direction KTS MPH feet Rate Location/Type
Thu 07:36:01 AM 36.1500 -86.7000 270° West 158 182 1,200  Level Nashville TRACON
Thu 07:36:56 AM 36.1500 -86.7500 270° West 198 228 2,900 2,139 Climbing Nashville TRACON
Thu 07:37:56 AM 36.1833 -86.7833 321° Northwest 213 245 5,300 2,140 Climbing Nashville TRACON
Thu 07:39:33 AM 36.2031 -86.6431 80° East 297 342 8,500 2,331 Climbing Memphis Center
Thu 07:40:33 AM 36.2017 -86.5350 91° East 309 356 11,400 2,800 Climbing Memphis Center
Thu 07:41:33 AM 36.2022 -86.4114 90° East 344 396 14,100 2,350 Climbing Memphis Center
Thu 07:42:33 AM 36.1994 -86.2625 91° East 375 432 16,100 2,200 Climbing Memphis Center
Thu 07:43:33 AM 36.1986 -86.1158 90° East 405 466 18,500 2,150 Climbing Memphis Center
Thu 07:44:33 AM 36.2397 -85.9775 70° East 418 481 20,400 2,034 Climbing Memphis Center
Thu 07:46:27 AM 36.3511 -85.7350 60° Northeast 456 525 24,400 1,943 Climbing Indianapolis Center
Thu 07:47:29 AM 36.4189 -85.5944 59° Northeast 469 540 26,100 1,597 Climbing Indianapolis Center
Thu 07:48:31 AM 36.4889 -85.4467 59° Northeast 490 564 27,700 1,659 Climbing Indianapolis Center
Thu 07:49:32 AM 36.5753 -85.2639 59° Northeast 505 581 29,500 1,610 Climbing Indianapolis Center
Thu 07:50:34 AM 36.6381 -85.1028 64° Northeast 512 589 31,000 1,317 Climbing Indianapolis Center
Thu 07:51:35 AM 36.6911 -84.9289 69° East 527 606 32,200 1,366 Climbing Indianapolis Center
Thu 07:52:37 AM 36.7447 -84.7531 69° East 535 616 33,800 1,366 Climbing Indianapolis Center
Thu 07:53:38 AM 36.7969 -84.5800 69° East 534 615 35,000 585 Climbing Indianapolis Center
Thu 07:54:40 AM 36.8500 -84.4033 69° East 544 626 35,000 290 Level Indianapolis Center
Thu 07:55:42 AM 36.9047 -84.2211 69° East 557 641 35,600 488 Climbing Indianapolis Center
Thu 07:56:43 AM 36.9581 -84.0436 69° East 547 629 36,000 195 Climbing Indianapolis Center
Thu 07:57:45 AM 37.0189 -83.8358 70° East 543 625 36,000  Level Indianapolis Center
Thu 07:58:46 AM 37.0739 -83.6581 69° East 546 628 36,000 488 Level Indianapolis Center
Thu 07:59:48 AM 37.1258 -83.4786 70° East 546 628 37,000 484 Climbing Indianapolis Center
Thu 08:00:50 AM 37.1769 -83.3000 70° East 542 624 37,000  Level Indianapolis Center
Thu 08:01:51 AM 37.2275 -83.1214 70° East 538 619 37,000  Level Indianapolis Center
Thu 08:02:53 AM 37.2800 -82.9419 70° East 539 620 37,000  Level Indianapolis Center
Thu 08:03:54 AM 37.3314 -82.7633 70° East 538 619 37,000  Level Indianapolis Center
Thu 08:04:56 AM 37.3817 -82.5842 71° East 538 619 37,000  Level Indianapolis Center
Thu 08:05:58 AM 37.4314 -82.4053 71° East 538 619 37,000  Level Indianapolis Center
Thu 08:06:59 AM 37.4819 -82.2272 70° East 538 619 37,000  Level Indianapolis Center
Thu 08:08:01 AM 37.5389 -82.0183 71° East 538 619 37,000  Level Indianapolis Center
Thu 08:09:02 AM 37.5886 -81.8406 71° East 539 620 37,000  Level Indianapolis Center
Thu 08:10:04 AM 37.6375 -81.6603 71° East 541 623 37,000  Level Indianapolis Center
Thu 08:11:06 AM 37.6856 -81.4844 71° East 539 620 37,000  Level Indianapolis Center
Thu 08:12:07 AM 37.7325 -81.3086 71° East 541 623 37,000  Level Indianapolis Center
Thu 08:12:38 AM 37.7583 -81.2000 73° East 528 608 37,000  Level Washington Center
Thu 08:13:38 AM 37.7892 -81.0317 77° East 538 619 37,000  Level Washington Center
Thu 08:14:39 AM 37.8122 -80.8439 81° East 543 625 37,000  Level Washington Center
Thu 08:15:38 AM 37.8347 -80.6586 81° East 543 625 37,000  Level Washington Center
Thu 08:16:39 AM 37.8553 -80.4656 82° East 538 619 37,000  Level Washington Center
Thu 08:17:38 AM 37.9042 -80.2869 71° East 538 619 37,000  Level Washington Center
Thu 08:18:39 AM 37.9822 -80.1022 62° Northeast 536 617 37,000  Level Washington Center
Thu 08:19:38 AM 38.0489 -79.9294 64° Northeast 536 617 37,000  Level Washington Center
Thu 08:20:38 AM 38.1133 -79.7592 64° Northeast 536 617 37,000  Level Washington Center
Thu 08:21:38 AM 38.1797 -79.5858 64° Northeast 536 617 37,000 -100 Level Washington Center
Thu 08:22:38 AM 38.2458 -79.4147 64° Northeast 542 624 36,800 -1,700 Descending Washington Center
Thu 08:23:38 AM 38.2994 -79.2322 69° East 542 624 33,600 99 Descending Washington Center
Thu 08:24:39 AM 38.3419 -79.0622 72° East 547 629 37,000 -3,300 Climbing Washington Center
Thu 08:25:38 AM 38.3958 -78.8528 72° East 559 643 27,000 -5,042 Descending Washington Center
Thu 08:26:38 AM 38.4403 -78.6692 73° East 559 643 27,000  Level Washington Center
Thu 08:27:38 AM 38.4889 -78.4831 71° East 552 635 27,000 -250 Level Washington Center
Thu 08:28:38 AM 38.5256 -78.3358 72° East 552 635 26,500 -2,033 Descending Washington Center
Thu 08:29:39 AM 38.5783 -78.1172 73° East 546 628 22,900 -3,150 Descending Washington Center
Thu 08:30:38 AM 38.6214 -77.9433 72° East 535 616 20,200 -1,966 Descending Washington Center
Thu 08:31:38 AM 38.6475 -77.7794 78° East 496 571 19,000 -600 Descending Washington Center
Thu 08:32:38 AM 38.6564 -77.6281 86° East 455 524 19,000 -276 Level Washington Center
Thu 08:33:05 AM 38.6667 -77.5500 80° East 424 488 18,600 -1,704 Descending Potomac TRACON
Thu 08:33:59 AM 38.6667 -77.4167 90° East 422 486 16,700 -1,486 Descending Potomac TRACON
Thu 08:34:54 AM 38.6833 -77.3000 80° East 404 465 15,900 -1,421 Descending Potomac TRACON
Thu 08:35:53 AM 38.6833 -77.1500 90° East 399 459 14,000 -2,000 Descending Potomac TRACON
Thu 08:36:48 AM 38.6833 -77.0167 90° East 396 456 12,100 -1,930 Descending Potomac TRACON
Thu 08:37:48 AM 38.7000 -76.8833 81° East 385 443 10,300 -1,200 Descending Potomac TRACON
Thu 08:38:38 AM 38.7008 -76.7967 89° East 376 433 9,900 -1,036 Descending Washington Center
Thu 08:39:38 AM 38.7250 -76.6933 73° East 349 402 8,400 -1,500 Descending Washington Center
Thu 08:40:42 AM 38.7833 -76.5833 56° Northeast 291 335 6,800 -1,161 Descending Potomac TRACON
Thu 08:41:42 AM 38.8167 -76.5000 63° Northeast 284 327 6,000 -895 Descending Potomac TRACON
Thu 08:42:36 AM 38.8833 -76.4833 11° North 258 297 5,100 -1,053 Descending Potomac TRACON
Thu 08:43:36 AM 38.9500 -76.5000 349° North 241 277 4,000 -1,000 Descending Potomac TRACON
Thu 08:44:36 AM 39.0167 -76.5167 349° North 247 284 3,100 -545 Descending Potomac TRACON
Thu 08:45:37 AM 39.0667 -76.5667 322° Northwest 208 239 2,900 -574 Descending Potomac TRACON
Thu 08:46:31 AM 39.1000 -76.6000 322° Northwest 185 213 2,000 -1,000 Descending Potomac TRACON
Thu 08:47:37 AM 39.1333 -76.6333 322° Northwest 131 151 900 -1,000 Descending Potomac TRACON
Thu 08:49:00 AM 39.1667 -76.6667 339° North  Level FlightAware Approximate
Thu 08:56:00 AM 39.1754 -76.6683 339° North  Level Estimated
Thu 08:57:00 AM 39.1754 -76.6683 339° North  Level Estimated
Thu 08:58:00 AM 39.1754 -76.6683 339° North  Level Estimated
Thu 08:59:00 AM 39.1754 -76.6683 339° North  Level Estimated

Login

Don't have an account? Register now (free) for customized features, flight alerts, and more!